sensor_id;sensor_type;location;lat;lon;timestamp;P1;durP1;ratioP1;P2;durP2;ratioP2
17141;SDS011;32805;53.556;9.944;2023-02-18T00:01:40;17.75;;;3.00;;
17141;SDS011;32805;53.556;9.944;2023-02-18T00:04:08;18.17;;;4.03;;
17141;SDS011;32805;53.556;9.944;2023-02-18T00:06:36;16.23;;;3.00;;
17141;SDS011;32805;53.556;9.944;2023-02-18T00:09:07;21.98;;;4.25;;
17141;SDS011;32805;53.556;9.944;2023-02-18T00:11:35;15.93;;;3.22;;
17141;SDS011;32805;53.556;9.944;2023-02-18T00:14:04;20.90;;;3.22;;
17141;SDS011;32805;53.556;9.944;2023-02-18T00:16:35;15.45;;;3.55;;
17141;SDS011;32805;53.556;9.944;2023-02-18T00:19:05;9.70;;;2.92;;
17141;SDS011;32805;53.556;9.944;2023-02-18T00:21:34;22.15;;;3.20;;
17141;SDS011;32805;53.556;9.944;2023-02-18T00:24:03;16.25;;;3.05;;
17141;SDS011;32805;53.556;9.944;2023-02-18T00:26:31;12.82;;;3.30;;
17141;SDS011;32805;53.556;9.944;2023-02-18T00:28:59;14.10;;;2.83;;
17141;SDS011;32805;53.556;9.944;2023-02-18T00:31:27;15.55;;;3.60;;
17141;SDS011;32805;53.556;9.944;2023-02-18T00:33:58;24.85;;;2.88;;
17141;SDS011;32805;53.556;9.944;2023-02-18T00:36:28;16.65;;;3.00;;
17141;SDS011;32805;53.556;9.944;2023-02-18T00:38:58;17.65;;;3.17;;
17141;SDS011;32805;53.556;9.944;2023-02-18T00:41:28;14.63;;;2.90;;
17141;SDS011;32805;53.556;9.944;2023-02-18T00:43:56;9.15;;;2.40;;
17141;SDS011;32805;53.556;9.944;2023-02-18T00:46:24;12.95;;;2.70;;
17141;SDS011;32805;53.556;9.944;2023-02-18T00:48:53;13.35;;;2.88;;
17141;SDS011;32805;53.556;9.944;2023-02-18T00:51:21;18.08;;;3.28;;
17141;SDS011;32805;53.556;9.944;2023-02-18T00:53:52;20.23;;;2.97;;
17141;SDS011;32805;53.556;9.944;2023-02-18T00:56:20;15.98;;;3.08;;
17141;SDS011;32805;53.556;9.944;2023-02-18T00:58:48;17.10;;;2.90;;
17141;SDS011;32805;53.556;9.944;2023-02-18T01:01:16;15.77;;;3.08;;
17141;SDS011;32805;53.556;9.944;2023-02-18T01:03:44;19.23;;;3.40;;
17141;SDS011;32805;53.556;9.944;2023-02-18T01:06:12;11.93;;;2.72;;
17141;SDS011;32805;53.556;9.944;2023-02-18T01:08:41;13.82;;;3.38;;
17141;SDS011;32805;53.556;9.944;2023-02-18T01:11:10;11.68;;;3.05;;
17141;SDS011;32805;53.556;9.944;2023-02-18T01:13:39;16.25;;;3.13;;
17141;SDS011;32805;53.556;9.944;2023-02-18T01:16:07;9.57;;;2.05;;
17141;SDS011;32805;53.556;9.944;2023-02-18T01:18:36;13.77;;;2.83;;
17141;SDS011;32805;53.556;9.944;2023-02-18T01:21:05;13.15;;;2.33;;
17141;SDS011;32805;53.556;9.944;2023-02-18T01:23:34;17.10;;;3.40;;
17141;SDS011;32805;53.556;9.944;2023-02-18T01:26:02;16.20;;;2.47;;
17141;SDS011;32805;53.556;9.944;2023-02-18T01:28:32;13.60;;;3.33;;
17141;SDS011;32805;53.556;9.944;2023-02-18T01:31:03;11.10;;;2.17;;
17141;SDS011;32805;53.556;9.944;2023-02-18T01:33:32;12.40;;;2.75;;
17141;SDS011;32805;53.556;9.944;2023-02-18T01:36:00;16.75;;;2.90;;
17141;SDS011;32805;53.556;9.944;2023-02-18T01:38:28;23.30;;;3.70;;
17141;SDS011;32805;53.556;9.944;2023-02-18T01:40:56;9.75;;;2.33;;
17141;SDS011;32805;53.556;9.944;2023-02-18T01:43:23;16.35;;;3.47;;
17141;SDS011;32805;53.556;9.944;2023-02-18T01:45:57;15.02;;;2.45;;
17141;SDS011;32805;53.556;9.944;2023-02-18T01:48:30;13.07;;;3.13;;
17141;SDS011;32805;53.556;9.944;2023-02-18T01:51:03;14.48;;;3.40;;
17141;SDS011;32805;53.556;9.944;2023-02-18T01:53:36;11.00;;;2.65;;
17141;SDS011;32805;53.556;9.944;2023-02-18T01:56:08;15.27;;;2.65;;
17141;SDS011;32805;53.556;9.944;2023-02-18T01:58:40;11.77;;;2.42;;
17141;SDS011;32805;53.556;9.944;2023-02-18T02:01:10;20.05;;;2.40;;
17141;SDS011;32805;53.556;9.944;2023-02-18T02:03:40;16.13;;;3.03;;
17141;SDS011;32805;53.556;9.944;2023-02-18T02:06:10;10.32;;;2.40;;
17141;SDS011;32805;53.556;9.944;2023-02-18T02:08:43;15.95;;;2.38;;
17141;SDS011;32805;53.556;9.944;2023-02-18T02:11:16;17.55;;;2.40;;
17141;SDS011;32805;53.556;9.944;2023-02-18T02:13:53;13.65;;;2.88;;
17141;SDS011;32805;53.556;9.944;2023-02-18T02:16:34;17.17;;;3.03;;
17141;SDS011;32805;53.556;9.944;2023-02-18T02:19:11;14.43;;;2.47;;
17141;SDS011;32805;53.556;9.944;2023-02-18T02:22:09;13.48;;;2.40;;
17141;SDS011;32805;53.556;9.944;2023-02-18T02:25:01;14.52;;;3.22;;
17141;SDS011;32805;53.556;9.944;2023-02-18T02:30:36;16.02;;;2.25;;
17141;SDS011;32805;53.556;9.944;2023-02-18T02:33:20;18.33;;;3.08;;
17141;SDS011;32805;53.556;9.944;2023-02-18T02:36:01;12.65;;;2.25;;
17141;SDS011;32805;53.556;9.944;2023-02-18T02:38:34;4.90;;;2.00;;
17141;SDS011;32805;53.556;9.944;2023-02-18T02:41:10;10.18;;;2.10;;
17141;SDS011;32805;53.556;9.944;2023-02-18T02:43:47;12.82;;;2.65;;
17141;SDS011;32805;53.556;9.944;2023-02-18T02:46:24;11.60;;;2.38;;
17141;SDS011;32805;53.556;9.944;2023-02-18T02:48:57;12.25;;;2.45;;
17141;SDS011;32805;53.556;9.944;2023-02-18T02:51:32;14.32;;;2.28;;
17141;SDS011;32805;53.556;9.944;2023-02-18T02:54:09;8.88;;;2.40;;
17141;SDS011;32805;53.556;9.944;2023-02-18T02:56:39;12.00;;;2.25;;
17141;SDS011;32805;53.556;9.944;2023-02-18T02:59:11;11.38;;;2.05;;
17141;SDS011;32805;53.556;9.944;2023-02-18T03:01:46;13.48;;;2.42;;
17141;SDS011;32805;53.556;9.944;2023-02-18T03:04:30;13.48;;;2.20;;
17141;SDS011;32805;53.556;9.944;2023-02-18T03:07:24;14.93;;;2.47;;
17141;SDS011;32805;53.556;9.944;2023-02-18T03:10:06;8.35;;;2.08;;
17141;SDS011;32805;53.556;9.944;2023-02-18T03:12:45;9.73;;;2.25;;
17141;SDS011;32805;53.556;9.944;2023-02-18T03:15:21;17.25;;;3.00;;
17141;SDS011;32805;53.556;9.944;2023-02-18T03:17:54;8.23;;;2.20;;
17141;SDS011;32805;53.556;9.944;2023-02-18T03:20:30;16.20;;;2.53;;
17141;SDS011;32805;53.556;9.944;2023-02-18T03:23:03;12.52;;;2.55;;
17141;SDS011;32805;53.556;9.944;2023-02-18T03:25:42;18.88;;;2.95;;
17141;SDS011;32805;53.556;9.944;2023-02-18T03:28:12;15.35;;;2.30;;
17141;SDS011;32805;53.556;9.944;2023-02-18T03:30:45;13.68;;;2.33;;
17141;SDS011;32805;53.556;9.944;2023-02-18T03:33:16;13.95;;;2.85;;
17141;SDS011;32805;53.556;9.944;2023-02-18T03:35:47;11.18;;;2.20;;
17141;SDS011;32805;53.556;9.944;2023-02-18T03:38:18;16.98;;;2.97;;
17141;SDS011;32805;53.556;9.944;2023-02-18T03:40:49;10.82;;;2.00;;
17141;SDS011;32805;53.556;9.944;2023-02-18T03:43:17;10.63;;;1.98;;
17141;SDS011;32805;53.556;9.944;2023-02-18T03:45:45;13.20;;;2.10;;
17141;SDS011;32805;53.556;9.944;2023-02-18T03:48:12;10.32;;;2.38;;
17141;SDS011;32805;53.556;9.944;2023-02-18T03:50:40;11.55;;;2.47;;
17141;SDS011;32805;53.556;9.944;2023-02-18T03:53:08;5.72;;;1.60;;
17141;SDS011;32805;53.556;9.944;2023-02-18T03:55:37;16.65;;;1.95;;
17141;SDS011;32805;53.556;9.944;2023-02-18T03:58:04;12.73;;;2.20;;
17141;SDS011;32805;53.556;9.944;2023-02-18T04:00:32;9.55;;;1.58;;
17141;SDS011;32805;53.556;9.944;2023-02-18T04:03:00;8.65;;;1.90;;
17141;SDS011;32805;53.556;9.944;2023-02-18T04:05:28;15.18;;;2.28;;
17141;SDS011;32805;53.556;9.944;2023-02-18T04:07:55;8.70;;;1.85;;
17141;SDS011;32805;53.556;9.944;2023-02-18T04:10:23;12.80;;;2.08;;
17141;SDS011;32805;53.556;9.944;2023-02-18T04:12:52;9.70;;;2.67;;
17141;SDS011;32805;53.556;9.944;2023-02-18T04:15:19;14.18;;;2.25;;
17141;SDS011;32805;53.556;9.944;2023-02-18T04:17:47;12.20;;;2.45;;
17141;SDS011;32805;53.556;9.944;2023-02-18T04:20:14;6.82;;;2.05;;
17141;SDS011;32805;53.556;9.944;2023-02-18T04:22:42;5.32;;;1.55;;
17141;SDS011;32805;53.556;9.944;2023-02-18T04:25:10;10.68;;;2.10;;
17141;SDS011;32805;53.556;9.944;2023-02-18T04:27:38;9.63;;;2.15;;
17141;SDS011;32805;53.556;9.944;2023-02-18T04:30:07;6.45;;;1.95;;
17141;SDS011;32805;53.556;9.944;2023-02-18T04:32:35;6.55;;;1.92;;
17141;SDS011;32805;53.556;9.944;2023-02-18T04:35:03;10.43;;;2.03;;
17141;SDS011;32805;53.556;9.944;2023-02-18T04:37:31;10.23;;;2.00;;
17141;SDS011;32805;53.556;9.944;2023-02-18T04:39:59;11.25;;;1.83;;
17141;SDS011;32805;53.556;9.944;2023-02-18T04:42:26;13.25;;;2.15;;
17141;SDS011;32805;53.556;9.944;2023-02-18T04:44:54;11.85;;;2.00;;
17141;SDS011;32805;53.556;9.944;2023-02-18T04:47:23;9.27;;;1.83;;
17141;SDS011;32805;53.556;9.944;2023-02-18T04:49:50;12.27;;;1.83;;
17141;SDS011;32805;53.556;9.944;2023-02-18T04:52:18;12.30;;;1.90;;
17141;SDS011;32805;53.556;9.944;2023-02-18T04:54:46;5.00;;;1.55;;
17141;SDS011;32805;53.556;9.944;2023-02-18T04:57:13;9.05;;;1.90;;
17141;SDS011;32805;53.556;9.944;2023-02-18T04:59:41;11.40;;;1.95;;
17141;SDS011;32805;53.556;9.944;2023-02-18T05:02:08;6.60;;;1.45;;
17141;SDS011;32805;53.556;9.944;2023-02-18T05:04:37;8.95;;;1.42;;
17141;SDS011;32805;53.556;9.944;2023-02-18T05:07:05;10.52;;;2.17;;
17141;SDS011;32805;53.556;9.944;2023-02-18T05:09:32;9.73;;;1.70;;
17141;SDS011;32805;53.556;9.944;2023-02-18T05:12:00;6.22;;;1.77;;
17141;SDS011;32805;53.556;9.944;2023-02-18T05:14:28;9.40;;;1.85;;
17141;SDS011;32805;53.556;9.944;2023-02-18T05:16:55;7.15;;;1.70;;
17141;SDS011;32805;53.556;9.944;2023-02-18T05:19:23;10.10;;;1.48;;
17141;SDS011;32805;53.556;9.944;2023-02-18T05:21:52;6.18;;;1.50;;
17141;SDS011;32805;53.556;9.944;2023-02-18T05:24:20;12.32;;;2.05;;
17141;SDS011;32805;53.556;9.944;2023-02-18T05:26:48;9.23;;;2.22;;
17141;SDS011;32805;53.556;9.944;2023-02-18T05:29:15;10.75;;;2.03;;
17141;SDS011;32805;53.556;9.944;2023-02-18T05:31:43;9.77;;;2.10;;
17141;SDS011;32805;53.556;9.944;2023-02-18T05:34:10;10.98;;;2.00;;
17141;SDS011;32805;53.556;9.944;2023-02-18T05:36:38;11.50;;;2.47;;
17141;SDS011;32805;53.556;9.944;2023-02-18T05:39:07;7.88;;;1.92;;
17141;SDS011;32805;53.556;9.944;2023-02-18T05:41:35;13.15;;;2.03;;
17141;SDS011;32805;53.556;9.944;2023-02-18T05:44:02;9.45;;;1.58;;
17141;SDS011;32805;53.556;9.944;2023-02-18T05:46:47;6.97;;;1.80;;
17141;SDS011;32805;53.556;9.944;2023-02-18T05:49:15;8.23;;;1.92;;
17141;SDS011;32805;53.556;9.944;2023-02-18T05:51:42;9.63;;;1.63;;
17141;SDS011;32805;53.556;9.944;2023-02-18T05:54:12;10.45;;;1.67;;
17141;SDS011;32805;53.556;9.944;2023-02-18T05:56:40;7.35;;;1.88;;
17141;SDS011;32805;53.556;9.944;2023-02-18T05:59:07;10.52;;;1.92;;
17141;SDS011;32805;53.556;9.944;2023-02-18T06:01:35;9.02;;;1.80;;
17141;SDS011;32805;53.556;9.944;2023-02-18T06:04:02;9.13;;;1.98;;
17141;SDS011;32805;53.556;9.944;2023-02-18T06:06:30;8.75;;;1.85;;
17141;SDS011;32805;53.556;9.944;2023-02-18T06:08:58;4.22;;;1.77;;
17141;SDS011;32805;53.556;9.944;2023-02-18T06:11:27;8.38;;;1.60;;
17141;SDS011;32805;53.556;9.944;2023-02-18T06:13:54;9.13;;;2.10;;
17141;SDS011;32805;53.556;9.944;2023-02-18T06:16:22;6.80;;;1.52;;
17141;SDS011;32805;53.556;9.944;2023-02-18T06:18:50;10.90;;;2.00;;
17141;SDS011;32805;53.556;9.944;2023-02-18T06:21:18;7.05;;;1.30;;
17141;SDS011;32805;53.556;9.944;2023-02-18T06:23:46;7.45;;;1.40;;
17141;SDS011;32805;53.556;9.944;2023-02-18T06:26:13;10.05;;;1.58;;
17141;SDS011;32805;53.556;9.944;2023-02-18T06:28:42;7.45;;;2.22;;
17141;SDS011;32805;53.556;9.944;2023-02-18T06:31:10;11.98;;;1.98;;
17141;SDS011;32805;53.556;9.944;2023-02-18T06:33:38;15.77;;;4.15;;
17141;SDS011;32805;53.556;9.944;2023-02-18T06:36:06;10.23;;;2.08;;
17141;SDS011;32805;53.556;9.944;2023-02-18T06:38:37;6.45;;;1.42;;
17141;SDS011;32805;53.556;9.944;2023-02-18T06:41:05;8.18;;;2.00;;
17141;SDS011;32805;53.556;9.944;2023-02-18T06:43:33;8.90;;;1.55;;
17141;SDS011;32805;53.556;9.944;2023-02-18T06:46:03;8.98;;;2.55;;
17141;SDS011;32805;53.556;9.944;2023-02-18T06:48:31;10.50;;;2.17;;
17141;SDS011;32805;53.556;9.944;2023-02-18T06:50:59;9.00;;;1.95;;
17141;SDS011;32805;53.556;9.944;2023-02-18T06:53:27;4.95;;;1.67;;
17141;SDS011;32805;53.556;9.944;2023-02-18T06:55:54;8.75;;;2.42;;
17141;SDS011;32805;53.556;9.944;2023-02-18T06:58:22;10.73;;;2.65;;
17141;SDS011;32805;53.556;9.944;2023-02-18T07:00:50;15.35;;;3.20;;
17141;SDS011;32805;53.556;9.944;2023-02-18T07:03:19;7.88;;;2.17;;
17141;SDS011;32805;53.556;9.944;2023-02-18T07:05:46;9.13;;;2.58;;
17141;SDS011;32805;53.556;9.944;2023-02-18T07:08:14;12.30;;;2.60;;
17141;SDS011;32805;53.556;9.944;2023-02-18T07:10:42;13.95;;;2.95;;
17141;SDS011;32805;53.556;9.944;2023-02-18T07:13:09;13.07;;;3.13;;
17141;SDS011;32805;53.556;9.944;2023-02-18T07:15:37;8.73;;;2.33;;
17141;SDS011;32805;53.556;9.944;2023-02-18T07:18:05;9.70;;;2.55;;
17141;SDS011;32805;53.556;9.944;2023-02-18T07:20:34;12.88;;;2.40;;
17141;SDS011;32805;53.556;9.944;2023-02-18T07:23:01;18.23;;;3.17;;
17141;SDS011;32805;53.556;9.944;2023-02-18T07:25:29;11.75;;;2.80;;
17141;SDS011;32805;53.556;9.944;2023-02-18T07:27:57;10.43;;;2.30;;
17141;SDS011;32805;53.556;9.944;2023-02-18T07:30:24;11.88;;;3.22;;
17141;SDS011;32805;53.556;9.944;2023-02-18T07:32:52;18.88;;;4.72;;
17141;SDS011;32805;53.556;9.944;2023-02-18T07:35:20;17.27;;;7.00;;
17141;SDS011;32805;53.556;9.944;2023-02-18T07:37:49;12.60;;;6.88;;
17141;SDS011;32805;53.556;9.944;2023-02-18T07:40:17;12.35;;;6.55;;
17141;SDS011;32805;53.556;9.944;2023-02-18T07:42:47;13.50;;;5.93;;
17141;SDS011;32805;53.556;9.944;2023-02-18T07:45:15;13.50;;;6.20;;
17141;SDS011;32805;53.556;9.944;2023-02-18T07:47:42;12.85;;;5.47;;
17141;SDS011;32805;53.556;9.944;2023-02-18T07:50:10;13.48;;;5.18;;
17141;SDS011;32805;53.556;9.944;2023-02-18T07:52:39;13.98;;;5.35;;
17141;SDS011;32805;53.556;9.944;2023-02-18T07:55:08;9.25;;;4.30;;
17141;SDS011;32805;53.556;9.944;2023-02-18T07:57:36;9.10;;;3.58;;
17141;SDS011;32805;53.556;9.944;2023-02-18T08:00:22;7.50;;;3.45;;
17141;SDS011;32805;53.556;9.944;2023-02-18T08:02:50;7.03;;;3.10;;
17141;SDS011;32805;53.556;9.944;2023-02-18T08:05:18;10.65;;;3.35;;
17141;SDS011;32805;53.556;9.944;2023-02-18T08:07:46;11.13;;;3.13;;
17141;SDS011;32805;53.556;9.944;2023-02-18T08:10:14;9.68;;;2.72;;
17141;SDS011;32805;53.556;9.944;2023-02-18T08:12:42;8.32;;;2.50;;
17141;SDS011;32805;53.556;9.944;2023-02-18T08:15:10;9.57;;;3.30;;
17141;SDS011;32805;53.556;9.944;2023-02-18T08:17:37;6.13;;;2.42;;
17141;SDS011;32805;53.556;9.944;2023-02-18T08:20:05;7.90;;;2.00;;
17141;SDS011;32805;53.556;9.944;2023-02-18T08:22:33;5.72;;;2.70;;
17141;SDS011;32805;53.556;9.944;2023-02-18T08:25:01;7.18;;;2.33;;
17141;SDS011;32805;53.556;9.944;2023-02-18T08:27:30;13.48;;;2.95;;
17141;SDS011;32805;53.556;9.944;2023-02-18T08:29:58;9.05;;;2.65;;
17141;SDS011;32805;53.556;9.944;2023-02-18T08:32:26;4.97;;;1.83;;
17141;SDS011;32805;53.556;9.944;2023-02-18T08:34:54;7.18;;;2.08;;
17141;SDS011;32805;53.556;9.944;2023-02-18T08:37:22;12.93;;;2.75;;
17141;SDS011;32805;53.556;9.944;2023-02-18T08:39:50;7.10;;;2.38;;
17141;SDS011;32805;53.556;9.944;2023-02-18T08:42:18;6.43;;;2.30;;
17141;SDS011;32805;53.556;9.944;2023-02-18T08:44:47;10.65;;;2.90;;
17141;SDS011;32805;53.556;9.944;2023-02-18T08:47:14;7.32;;;2.53;;
17141;SDS011;32805;53.556;9.944;2023-02-18T08:50:02;7.53;;;2.20;;
17141;SDS011;32805;53.556;9.944;2023-02-18T08:52:30;9.07;;;3.35;;
17141;SDS011;32805;53.556;9.944;2023-02-18T08:54:57;6.68;;;2.67;;
17141;SDS011;32805;53.556;9.944;2023-02-18T08:57:26;7.97;;;2.85;;
17141;SDS011;32805;53.556;9.944;2023-02-18T08:59:55;8.90;;;2.67;;
17141;SDS011;32805;53.556;9.944;2023-02-18T09:02:23;7.30;;;2.72;;
17141;SDS011;32805;53.556;9.944;2023-02-18T09:04:50;13.52;;;2.97;;
17141;SDS011;32805;53.556;9.944;2023-02-18T09:07:18;8.27;;;2.63;;
17141;SDS011;32805;53.556;9.944;2023-02-18T09:09:45;10.00;;;3.17;;
17141;SDS011;32805;53.556;9.944;2023-02-18T09:12:13;11.15;;;3.80;;
17141;SDS011;32805;53.556;9.944;2023-02-18T09:14:41;9.18;;;3.13;;
17141;SDS011;32805;53.556;9.944;2023-02-18T09:17:10;8.60;;;4.32;;
17141;SDS011;32805;53.556;9.944;2023-02-18T09:19:37;12.98;;;4.35;;
17141;SDS011;32805;53.556;9.944;2023-02-18T09:22:05;8.65;;;4.38;;
17141;SDS011;32805;53.556;9.944;2023-02-18T09:24:35;12.32;;;5.40;;
17141;SDS011;32805;53.556;9.944;2023-02-18T09:27:03;8.38;;;4.95;;
17141;SDS011;32805;53.556;9.944;2023-02-18T09:29:31;8.57;;;4.50;;
17141;SDS011;32805;53.556;9.944;2023-02-18T09:31:59;8.27;;;5.13;;
17141;SDS011;32805;53.556;9.944;2023-02-18T09:34:28;14.65;;;5.40;;
17141;SDS011;32805;53.556;9.944;2023-02-18T09:36:56;11.65;;;5.55;;
17141;SDS011;32805;53.556;9.944;2023-02-18T09:39:24;15.32;;;6.05;;
17141;SDS011;32805;53.556;9.944;2023-02-18T09:41:52;9.27;;;5.53;;
17141;SDS011;32805;53.556;9.944;2023-02-18T09:44:24;10.30;;;5.90;;
17141;SDS011;32805;53.556;9.944;2023-02-18T09:46:54;9.93;;;5.97;;
17141;SDS011;32805;53.556;9.944;2023-02-18T09:49:26;10.00;;;6.40;;
17141;SDS011;32805;53.556;9.944;2023-02-18T09:51:59;10.13;;;6.60;;
17141;SDS011;32805;53.556;9.944;2023-02-18T09:54:30;8.98;;;6.03;;
17141;SDS011;32805;53.556;9.944;2023-02-18T09:56:58;9.55;;;6.00;;
17141;SDS011;32805;53.556;9.944;2023-02-18T09:59:27;10.52;;;6.53;;
17141;SDS011;32805;53.556;9.944;2023-02-18T10:01:55;10.50;;;6.45;;
17141;SDS011;32805;53.556;9.944;2023-02-18T10:04:24;11.50;;;6.50;;
17141;SDS011;32805;53.556;9.944;2023-02-18T10:06:58;10.02;;;6.28;;
17141;SDS011;32805;53.556;9.944;2023-02-18T10:09:30;9.98;;;6.97;;
17141;SDS011;32805;53.556;9.944;2023-02-18T10:12:02;10.75;;;6.38;;
17141;SDS011;32805;53.556;9.944;2023-02-18T10:14:38;10.70;;;6.68;;
17141;SDS011;32805;53.556;9.944;2023-02-18T10:17:06;10.93;;;7.13;;
17141;SDS011;32805;53.556;9.944;2023-02-18T10:19:37;8.27;;;6.22;;
17141;SDS011;32805;53.556;9.944;2023-02-18T10:22:08;8.93;;;6.45;;
17141;SDS011;32805;53.556;9.944;2023-02-18T10:24:41;8.48;;;6.05;;
17141;SDS011;32805;53.556;9.944;2023-02-18T10:27:15;7.78;;;6.43;;
17141;SDS011;32805;53.556;9.944;2023-02-18T10:29:45;10.73;;;6.90;;
17141;SDS011;32805;53.556;9.944;2023-02-18T10:32:15;9.98;;;6.10;;
17141;SDS011;32805;53.556;9.944;2023-02-18T10:34:48;6.72;;;6.03;;
17141;SDS011;32805;53.556;9.944;2023-02-18T10:37:28;9.73;;;6.75;;
17141;SDS011;32805;53.556;9.944;2023-02-18T10:40:08;11.50;;;6.78;;
17141;SDS011;32805;53.556;9.944;2023-02-18T10:42:43;9.82;;;6.93;;
17141;SDS011;32805;53.556;9.944;2023-02-18T10:45:20;11.02;;;8.00;;
17141;SDS011;32805;53.556;9.944;2023-02-18T10:48:00;10.10;;;7.82;;
17141;SDS011;32805;53.556;9.944;2023-02-18T10:50:38;8.35;;;7.35;;
17141;SDS011;32805;53.556;9.944;2023-02-18T10:53:10;12.13;;;7.90;;
17141;SDS011;32805;53.556;9.944;2023-02-18T10:55:40;11.10;;;7.57;;
17141;SDS011;32805;53.556;9.944;2023-02-18T10:58:26;7.88;;;6.55;;
17141;SDS011;32805;53.556;9.944;2023-02-18T11:00:58;7.55;;;6.40;;
17141;SDS011;32805;53.556;9.944;2023-02-18T11:03:40;8.18;;;6.38;;
17141;SDS011;32805;53.556;9.944;2023-02-18T11:06:15;7.95;;;5.80;;
17141;SDS011;32805;53.556;9.944;2023-02-18T11:08:48;9.52;;;6.68;;
17141;SDS011;32805;53.556;9.944;2023-02-18T11:11:17;10.18;;;6.93;;
17141;SDS011;32805;53.556;9.944;2023-02-18T11:13:51;8.88;;;6.10;;
17141;SDS011;32805;53.556;9.944;2023-02-18T11:16:20;7.43;;;5.13;;
17141;SDS011;32805;53.556;9.944;2023-02-18T11:18:49;6.20;;;4.43;;
17141;SDS011;32805;53.556;9.944;2023-02-18T11:21:22;10.52;;;4.88;;
17141;SDS011;32805;53.556;9.944;2023-02-18T11:23:54;6.55;;;4.47;;
17141;SDS011;32805;53.556;9.944;2023-02-18T11:26:25;5.07;;;4.30;;
17141;SDS011;32805;53.556;9.944;2023-02-18T11:28:56;5.43;;;4.10;;
17141;SDS011;32805;53.556;9.944;2023-02-18T11:31:33;4.68;;;3.45;;
17141;SDS011;32805;53.556;9.944;2023-02-18T11:34:12;4.97;;;2.83;;
17141;SDS011;32805;53.556;9.944;2023-02-18T11:36:42;3.10;;;2.15;;
17141;SDS011;32805;53.556;9.944;2023-02-18T11:39:18;3.25;;;2.53;;
17141;SDS011;32805;53.556;9.944;2023-02-18T11:41:53;2.45;;;1.77;;
17141;SDS011;32805;53.556;9.944;2023-02-18T11:44:23;2.10;;;1.52;;
17141;SDS011;32805;53.556;9.944;2023-02-18T11:46:56;1.08;;;0.88;;
17141;SDS011;32805;53.556;9.944;2023-02-18T11:49:26;0.82;;;0.70;;
17141;SDS011;32805;53.556;9.944;2023-02-18T11:52:02;0.95;;;0.70;;
17141;SDS011;32805;53.556;9.944;2023-02-18T11:54:33;0.80;;;0.80;;
17141;SDS011;32805;53.556;9.944;2023-02-18T11:57:02;1.38;;;1.00;;
17141;SDS011;32805;53.556;9.944;2023-02-18T11:59:32;1.17;;;0.80;;
17141;SDS011;32805;53.556;9.944;2023-02-18T12:02:04;3.63;;;1.00;;
17141;SDS011;32805;53.556;9.944;2023-02-18T12:04:45;3.97;;;0.90;;
17141;SDS011;32805;53.556;9.944;2023-02-18T12:07:19;12.50;;;1.58;;
17141;SDS011;32805;53.556;9.944;2023-02-18T12:09:51;18.25;;;1.65;;
17141;SDS011;32805;53.556;9.944;2023-02-18T12:12:24;7.53;;;1.00;;
17141;SDS011;32805;53.556;9.944;2023-02-18T12:14:54;0.88;;;0.70;;
17141;SDS011;32805;53.556;9.944;2023-02-18T12:17:31;0.82;;;0.70;;
17141;SDS011;32805;53.556;9.944;2023-02-18T12:20:16;1.23;;;0.80;;
17141;SDS011;32805;53.556;9.944;2023-02-18T12:22:55;1.65;;;1.17;;
17141;SDS011;32805;53.556;9.944;2023-02-18T12:25:33;1.45;;;0.93;;
17141;SDS011;32805;53.556;9.944;2023-02-18T12:28:12;1.25;;;1.00;;
17141;SDS011;32805;53.556;9.944;2023-02-18T12:30:57;2.22;;;1.20;;
17141;SDS011;32805;53.556;9.944;2023-02-18T12:33:48;5.45;;;1.48;;
17141;SDS011;32805;53.556;9.944;2023-02-18T12:36:25;3.30;;;1.33;;
17141;SDS011;32805;53.556;9.944;2023-02-18T12:39:10;2.22;;;1.55;;
17141;SDS011;32805;53.556;9.944;2023-02-18T12:41:49;4.88;;;1.77;;
17141;SDS011;32805;53.556;9.944;2023-02-18T12:44:30;7.32;;;2.30;;
17141;SDS011;32805;53.556;9.944;2023-02-18T12:47:11;5.05;;;2.05;;
17141;SDS011;32805;53.556;9.944;2023-02-18T12:49:56;8.10;;;2.53;;
17141;SDS011;32805;53.556;9.944;2023-02-18T12:52:45;5.50;;;2.20;;
17141;SDS011;32805;53.556;9.944;2023-02-18T12:55:26;7.55;;;2.17;;
17141;SDS011;32805;53.556;9.944;2023-02-18T12:58:07;6.68;;;2.30;;
17141;SDS011;32805;53.556;9.944;2023-02-18T13:09:50;13.07;;;3.50;;
17141;SDS011;32805;53.556;9.944;2023-02-18T13:12:33;18.48;;;3.67;;
17141;SDS011;32805;53.556;9.944;2023-02-18T13:15:12;10.27;;;2.33;;
17141;SDS011;32805;53.556;9.944;2023-02-18T13:17:44;14.73;;;3.03;;
17141;SDS011;32805;53.556;9.944;2023-02-18T13:20:13;8.82;;;3.45;;
17141;SDS011;32805;53.556;9.944;2023-02-18T13:22:48;15.18;;;3.33;;
17141;SDS011;32805;53.556;9.944;2023-02-18T13:25:21;18.65;;;3.78;;
17141;SDS011;32805;53.556;9.944;2023-02-18T13:27:53;16.20;;;3.17;;
17141;SDS011;32805;53.556;9.944;2023-02-18T13:30:39;12.57;;;3.00;;
17141;SDS011;32805;53.556;9.944;2023-02-18T13:33:13;15.80;;;3.60;;
17141;SDS011;32805;53.556;9.944;2023-02-18T13:35:45;15.27;;;3.92;;
17141;SDS011;32805;53.556;9.944;2023-02-18T13:38:23;11.98;;;3.47;;
17141;SDS011;32805;53.556;9.944;2023-02-18T13:41:01;20.73;;;3.47;;
17141;SDS011;32805;53.556;9.944;2023-02-18T13:43:31;15.35;;;3.65;;
17141;SDS011;32805;53.556;9.944;2023-02-18T13:46:06;12.10;;;3.65;;
17141;SDS011;32805;53.556;9.944;2023-02-18T13:48:39;13.10;;;3.95;;
17141;SDS011;32805;53.556;9.944;2023-02-18T13:51:11;14.93;;;3.13;;
17141;SDS011;32805;53.556;9.944;2023-02-18T13:53:41;12.68;;;3.50;;
17141;SDS011;32805;53.556;9.944;2023-02-18T13:56:18;16.60;;;3.20;;
17141;SDS011;32805;53.556;9.944;2023-02-18T13:58:48;11.50;;;3.30;;
17141;SDS011;32805;53.556;9.944;2023-02-18T14:01:21;17.13;;;3.80;;
17141;SDS011;32805;53.556;9.944;2023-02-18T14:03:52;18.55;;;4.03;;
17141;SDS011;32805;53.556;9.944;2023-02-18T14:06:25;14.45;;;3.60;;
17141;SDS011;32805;53.556;9.944;2023-02-18T14:09:02;14.25;;;3.50;;
17141;SDS011;32805;53.556;9.944;2023-02-18T14:11:53;12.45;;;3.53;;
17141;SDS011;32805;53.556;9.944;2023-02-18T14:17:22;14.75;;;4.13;;
17141;SDS011;32805;53.556;9.944;2023-02-18T14:22:56;7.55;;;2.83;;
17141;SDS011;32805;53.556;9.944;2023-02-18T14:25:30;8.43;;;2.85;;
17141;SDS011;32805;53.556;9.944;2023-02-18T14:28:02;7.75;;;2.40;;
17141;SDS011;32805;53.556;9.944;2023-02-18T14:30:50;7.00;;;2.67;;
17141;SDS011;32805;53.556;9.944;2023-02-18T14:33:19;8.25;;;2.90;;
17141;SDS011;32805;53.556;9.944;2023-02-18T14:35:48;3.60;;;2.83;;
17141;SDS011;32805;53.556;9.944;2023-02-18T14:38:26;6.40;;;3.10;;
17141;SDS011;32805;53.556;9.944;2023-02-18T14:41:03;4.70;;;3.45;;
17141;SDS011;32805;53.556;9.944;2023-02-18T14:43:45;5.07;;;3.28;;
17141;SDS011;32805;53.556;9.944;2023-02-18T14:46:32;4.82;;;3.63;;
17141;SDS011;32805;53.556;9.944;2023-02-18T14:52:04;4.00;;;2.85;;
17141;SDS011;32805;53.556;9.944;2023-02-18T14:54:37;5.28;;;4.00;;
17141;SDS011;32805;53.556;9.944;2023-02-18T14:57:08;5.05;;;3.95;;
17141;SDS011;32805;53.556;9.944;2023-02-18T14:59:40;5.22;;;4.40;;
17141;SDS011;32805;53.556;9.944;2023-02-18T15:02:14;6.00;;;4.72;;
17141;SDS011;32805;53.556;9.944;2023-02-18T15:04:46;6.18;;;4.57;;
17141;SDS011;32805;53.556;9.944;2023-02-18T15:07:17;5.45;;;4.88;;
17141;SDS011;32805;53.556;9.944;2023-02-18T15:09:46;7.20;;;4.95;;
17141;SDS011;32805;53.556;9.944;2023-02-18T15:12:15;6.25;;;4.78;;
17141;SDS011;32805;53.556;9.944;2023-02-18T15:14:45;8.32;;;5.30;;
17141;SDS011;32805;53.556;9.944;2023-02-18T15:17:16;5.93;;;5.03;;
17141;SDS011;32805;53.556;9.944;2023-02-18T15:19:49;5.63;;;4.57;;
17141;SDS011;32805;53.556;9.944;2023-02-18T15:22:20;6.20;;;4.97;;
17141;SDS011;32805;53.556;9.944;2023-02-18T15:24:49;6.07;;;4.47;;
17141;SDS011;32805;53.556;9.944;2023-02-18T15:27:18;7.25;;;5.32;;